KMSO/MSO METAR and TAF weather

Enter ICAO airport designator
Station Type Date Time Source
KMSO METAR 2020/09/18 15:53 UTC NOAA

KMSO 181553Z 00000KT 2 1/2SM HZ SCT032 10/06 A3001 RMK AO2 SLP162 T01000061


Station Type Date Time Source
KMSO Decoded METAR 2020/09/18 15:53 UTC NOAA

MISSOULA INTERNATIONAL AIRPORT , MT, United States (KMSO) 46-55N 114-06W 975M
Sep 18, 2020 - 11:53 AM EDT / 2020.09.18 1553 UTC
Wind: Calm:0
Visibility: 2 1/2 mile(s):0
Sky conditions: partly cloudy
Weather: haze
Temperature: 50.0 F (10.0 C)
Dew Point: 43.0 F (6.1 C)
Relative Humidity: 76%
Pressure (altimeter): 30.01 in. Hg (1016 hPa)
ob: KMSO 181553Z 00000KT 2 1/2SM HZ SCT032 10/06 A3001 RMK AO2 SLP162 T01000061
cycle: 16

Station Type Date Time Source
KMSO TAF 2020/09/18 12:30 UTC NOAA

KMSO 181126Z 1812/1912 00000KT 3SM FU OVC035
FM182200 24008KT 3SM FU BKN035
FM182300 33007KT 4SM FU VCSH OVC040
FM190100 30006KT 5SM HZ BKN040
FM191100 30005KT 6SM -SHRA HZ OVC040

Example: see airport list